Time;durP1;ratioP1;P1;durP2;ratioP2;P2;SDS_P1;SDS_P2;PMS_P1;PMS_P2;Temp;Humidity;BMP_temperature;BMP_pressure;BME280_temperature;BME280_humidity;BME280_pressure;Samples;Min_cycle;Max_cycle;Signal;HPM_P1;HPM_P2
2022/07/17 00:00:46;;;;;;;3.00;1.20;;;12.20;99.90;;;;;;5019791;28;20045;-69
2022/07/17 00:03:14;;;;;;;2.30;0.90;;;12.10;99.90;;;;;;5018671;28;20386;-69
2022/07/17 00:05:40;;;;;;;4.78;1.00;;;12.10;99.90;;;;;;5019341;28;20064;-70
2022/07/17 00:08:06;;;;;;;4.15;1.30;;;12.10;99.90;;;;;;5019652;28;20482;-69
2022/07/17 00:10:33;;;;;;;4.20;1.20;;;12.00;99.90;;;;;;5036149;28;20512;-69
2022/07/17 00:12:59;;;;;;;4.60;1.23;;;11.90;99.90;;;;;;5035163;28;20137;-69
2022/07/17 00:15:24;;;;;;;5.15;1.40;;;11.80;99.90;;;;;;5035662;28;20068;-69
2022/07/17 00:17:50;;;;;;;3.85;1.38;;;11.80;99.90;;;;;;5040833;28;20041;-69
2022/07/17 00:20:16;;;;;;;3.50;1.20;;;11.80;99.90;;;;;;5035787;28;20079;-69
2022/07/17 00:22:42;;;;;;;2.97;1.30;;;11.70;99.90;;;;;;5019272;28;20444;-69
2022/07/17 00:25:10;;;;;;;3.97;1.23;;;11.70;99.90;;;;;;5036068;28;20469;-69
2022/07/17 00:27:36;;;;;;;3.22;1.40;;;11.60;99.90;;;;;;5034848;28;20072;-69
2022/07/17 00:30:03;;;;;;;4.00;1.33;;;11.70;99.90;;;;;;5018701;28;20044;-69
2022/07/17 00:32:29;;;;;;;2.45;1.10;;;11.70;99.90;;;;;;5033939;28;20406;-69
2022/07/17 00:34:55;;;;;;;2.67;1.25;;;11.70;99.90;;;;;;5036105;28;20037;-69
2022/07/17 00:37:22;;;;;;;2.70;1.20;;;11.70;99.90;;;;;;5034915;28;20041;-69
2022/07/17 00:39:47;;;;;;;3.90;1.60;;;11.70;99.90;;;;;;5035668;28;20037;-69
2022/07/17 00:42:14;;;;;;;5.93;1.70;;;11.50;99.90;;;;;;5016565;28;20200;-69
2022/07/17 00:44:40;;;;;;;2.53;1.15;;;11.40;99.90;;;;;;5034853;28;20045;-69
2022/07/17 00:47:18;;;;;;;2.03;1.02;;;11.30;99.90;;;;;;5035910;28;20171;-69
2022/07/17 00:49:44;;;;;;;1.65;0.90;;;11.30;99.90;;;;;;5035546;28;20040;-69
2022/07/17 00:52:11;;;;;;;1.73;1.00;;;11.40;99.90;;;;;;5034886;28;20124;-69
2022/07/17 00:54:42;;;;;;;1.85;0.80;;;11.40;99.90;;;;;;5035501;28;20049;-69
2022/07/17 00:57:10;;;;;;;2.00;1.27;;;11.40;99.90;;;;;;5017981;28;20512;-69
2022/07/17 00:59:36;;;;;;;2.20;0.98;;;11.40;99.90;;;;;;5033922;28;20425;-69
2022/07/17 01:02:06;;;;;;;1.42;0.80;;;11.40;99.90;;;;;;5034937;28;20044;-69
2022/07/17 01:04:33;;;;;;;0.73;0.60;;;11.40;99.90;;;;;;5034324;28;20071;-69
2022/07/17 01:07:00;;;;;;;0.98;0.50;;;11.40;99.90;;;;;;5018970;28;20047;-69
2022/07/17 01:09:27;;;;;;;0.73;0.50;;;11.40;99.90;;;;;;5035350;28;20044;-69
2022/07/17 01:11:54;;;;;;;1.35;0.80;;;11.40;99.90;;;;;;5034796;28;20397;-69
2022/07/17 01:14:21;;;;;;;2.75;0.75;;;11.30;99.90;;;;;;5034835;28;20055;-69
2022/07/17 01:16:47;;;;;;;2.03;0.80;;;11.30;99.90;;;;;;5018858;28;20029;-69
2022/07/17 01:19:12;;;;;;;1.48;0.80;;;11.20;99.90;;;;;;5019156;28;20099;-69
2022/07/17 01:21:43;;;;;;;1.52;0.85;;;11.20;99.90;;;;;;5018644;28;20041;-69
2022/07/17 01:24:09;;;;;;;2.95;1.20;;;11.20;99.90;;;;;;5018007;28;20091;-69
2022/07/17 01:26:35;;;;;;;2.20;1.10;;;11.20;99.90;;;;;;5034011;28;20045;-69
2022/07/17 01:29:01;;;;;;;3.83;1.10;;;11.10;99.90;;;;;;5017066;28;20060;-69
2022/07/17 01:31:26;;;;;;;4.53;1.60;;;11.00;99.90;;;;;;5018354;28;20144;-69
2022/07/17 01:33:52;;;;;;;4.03;1.40;;;10.90;99.90;;;;;;5033583;28;20100;-69
2022/07/17 01:36:24;;;;;;;2.45;1.10;;;10.90;99.90;;;;;;5018110;28;20436;-69
2022/07/17 01:38:51;;;;;;;2.05;1.00;;;10.90;99.90;;;;;;5044723;28;20123;-69
2022/07/17 01:41:17;;;;;;;3.42;1.67;;;11.00;99.90;;;;;;5034990;28;20037;-69
2022/07/17 01:43:42;;;;;;;1.27;0.90;;;10.90;99.90;;;;;;5034120;28;20059;-69
2022/07/17 01:46:08;;;;;;;1.40;0.80;;;10.90;99.90;;;;;;5017820;28;20037;-69
2022/07/17 01:48:34;;;;;;;2.00;0.90;;;10.90;99.90;;;;;;5018409;28;20390;-69
2022/07/17 01:50:59;;;;;;;1.15;0.70;;;10.90;99.90;;;;;;5035060;28;20481;-69
2022/07/17 01:53:25;;;;;;;1.40;0.70;;;11.00;99.90;;;;;;5034145;28;20493;-69
2022/07/17 01:55:51;;;;;;;1.38;0.60;;;11.00;99.90;;;;;;5034829;28;20041;-69
2022/07/17 01:58:17;;;;;;;1.70;0.88;;;11.00;99.90;;;;;;5018707;28;20045;-69
2022/07/17 02:00:43;;;;;;;1.30;0.70;;;10.90;99.90;;;;;;5035777;28;20033;-69
2022/07/17 02:03:09;;;;;;;2.58;0.82;;;10.90;99.90;;;;;;5022361;28;20048;-69
2022/07/17 02:05:34;;;;;;;1.15;0.80;;;10.90;99.90;;;;;;5034815;28;20041;-69
2022/07/17 02:08:00;;;;;;;1.13;0.90;;;10.90;99.90;;;;;;5033710;28;20051;-69
2022/07/17 02:10:26;;;;;;;1.75;0.90;;;10.80;99.90;;;;;;5037333;28;20063;-69
2022/07/17 02:12:52;;;;;;;2.75;0.90;;;10.80;99.90;;;;;;5037500;28;20455;-69
2022/07/17 02:15:17;;;;;;;1.77;0.82;;;10.80;99.90;;;;;;5021997;28;20120;-69
2022/07/17 02:17:43;;;;;;;2.70;1.00;;;10.80;99.90;;;;;;5036100;28;20490;-69
2022/07/17 02:20:10;;;;;;;2.08;0.95;;;10.70;99.90;;;;;;5036732;28;20067;-70
2022/07/17 02:22:36;;;;;;;1.83;1.00;;;10.70;99.90;;;;;;5035981;28;20040;-70
2022/07/17 02:25:03;;;;;;;2.53;0.90;;;10.70;99.90;;;;;;5037910;28;20040;-69
2022/07/17 02:27:31;;;;;;;3.28;0.90;;;10.60;99.90;;;;;;5038054;28;20080;-69
2022/07/17 02:29:57;;;;;;;3.35;1.02;;;10.70;99.90;;;;;;5039225;28;20135;-69
2022/07/17 02:32:22;;;;;;;2.00;0.80;;;10.60;99.90;;;;;;5035313;28;20148;-69
2022/07/17 02:34:48;;;;;;;2.13;1.10;;;10.50;99.90;;;;;;5021578;28;20040;-69
2022/07/17 02:37:14;;;;;;;2.40;1.10;;;10.40;99.90;;;;;;5037289;28;20084;-69
2022/07/17 02:39:52;;;;;;;2.85;1.33;;;10.40;99.90;;;;;;5021479;28;20098;-69
2022/07/17 02:42:19;;;;;;;2.95;1.30;;;10.30;99.90;;;;;;5036931;28;20075;-69
2022/07/17 02:44:44;;;;;;;2.42;1.10;;;10.30;99.90;;;;;;5037397;28;20052;-69
2022/07/17 02:47:10;;;;;;;2.70;1.20;;;10.30;99.90;;;;;;5037800;28;20180;-69
2022/07/17 02:49:35;;;;;;;3.92;1.42;;;10.30;99.90;;;;;;5037837;28;20049;-69
2022/07/17 02:52:01;;;;;;;3.45;1.50;;;10.40;99.90;;;;;;5036050;28;20037;-69
2022/07/17 02:54:27;;;;;;;3.30;1.60;;;10.40;99.90;;;;;;5037993;28;20033;-69
2022/07/17 02:56:52;;;;;;;5.82;1.67;;;10.40;99.90;;;;;;5037719;28;20473;-69
2022/07/17 02:59:18;;;;;;;3.33;1.73;;;10.50;99.90;;;;;;5036572;28;20041;-69
2022/07/17 03:01:43;;;;;;;4.63;2.08;;;10.40;99.90;;;;;;5036407;28;20079;-69
2022/07/17 03:04:09;;;;;;;4.90;2.40;;;10.60;99.90;;;;;;5036402;28;20083;-69
2022/07/17 03:06:34;;;;;;;5.75;2.40;;;10.60;99.90;;;;;;5037455;28;20573;-69
2022/07/17 03:09:00;;;;;;;4.97;1.88;;;10.50;99.90;;;;;;5037363;28;20098;-69
2022/07/17 03:11:25;;;;;;;4.53;1.60;;;10.40;99.90;;;;;;5019531;28;20068;-69
2022/07/17 03:13:51;;;;;;;3.72;1.65;;;10.40;99.90;;;;;;5036391;28;20151;-69
2022/07/17 03:16:16;;;;;;;2.30;1.23;;;10.40;99.90;;;;;;5037313;28;20041;-69
2022/07/17 03:18:42;;;;;;;4.88;1.40;;;10.40;99.90;;;;;;5037240;28;20127;-69
2022/07/17 03:21:08;;;;;;;2.97;1.23;;;10.40;99.90;;;;;;5035240;28;20029;-69
2022/07/17 03:23:33;;;;;;;1.08;0.88;;;10.40;99.90;;;;;;5035876;28;20037;-69
2022/07/17 03:25:59;;;;;;;1.67;1.00;;;10.40;99.90;;;;;;5020436;28;20048;-69
2022/07/17 03:28:24;;;;;;;3.38;1.08;;;10.30;99.90;;;;;;5033264;28;20501;-69
2022/07/17 03:30:50;;;;;;;1.30;0.90;;;10.30;99.90;;;;;;5032231;28;20076;-69
2022/07/17 03:33:16;;;;;;;0.85;0.82;;;10.30;99.90;;;;;;5035863;28;20069;-69
2022/07/17 03:35:41;;;;;;;2.97;1.27;;;10.10;99.90;;;;;;5029031;28;20489;-69
2022/07/17 03:38:07;;;;;;;3.75;1.42;;;10.00;99.90;;;;;;5027338;28;20033;-69
2022/07/17 03:40:32;;;;;;;3.80;1.45;;;9.90;99.90;;;;;;5035814;28;20037;-69
2022/07/17 03:42:58;;;;;;;5.10;1.83;;;9.90;99.90;;;;;;5033827;28;20424;-69
2022/07/17 03:45:24;;;;;;;2.97;1.55;;;9.90;99.90;;;;;;5017431;28;20047;-69
2022/07/17 03:47:49;;;;;;;3.15;1.30;;;10.00;99.90;;;;;;5034443;28;20037;-69
2022/07/17 03:50:15;;;;;;;1.88;1.08;;;10.00;99.90;;;;;;5035094;28;20382;-69
2022/07/17 03:52:40;;;;;;;3.65;1.40;;;10.10;99.90;;;;;;5034716;28;20045;-69
2022/07/17 03:55:06;;;;;;;2.40;1.23;;;10.10;99.90;;;;;;5018235;28;20072;-68
2022/07/17 03:57:32;;;;;;;2.00;1.23;;;10.10;99.90;;;;;;5035085;28;20043;-69
2022/07/17 03:59:57;;;;;;;3.42;1.50;;;10.00;99.90;;;;;;5034392;28;20045;-69
2022/07/17 04:02:23;;;;;;;4.47;1.40;;;10.00;99.90;;;;;;5019790;28;20068;-69
2022/07/17 04:04:48;;;;;;;2.42;1.35;;;10.10;99.90;;;;;;5031219;28;20507;-69
2022/07/17 04:07:30;;;;;;;2.30;1.00;;;10.10;99.90;;;;;;5018083;28;20167;-69
2022/07/17 04:09:58;;;;;;;1.42;0.88;;;10.10;99.90;;;;;;5028770;28;20037;-68
2022/07/17 04:12:24;;;;;;;1.98;1.00;;;10.10;99.90;;;;;;5024969;28;20044;-69
2022/07/17 04:14:50;;;;;;;3.80;1.00;;;10.10;99.90;;;;;;5035641;28;20040;-69
2022/07/17 04:17:16;;;;;;;1.35;0.80;;;10.00;99.90;;;;;;5032043;28;20033;-69
2022/07/17 04:19:41;;;;;;;2.08;1.20;;;10.00;99.90;;;;;;5034560;28;20037;-69
2022/07/17 04:22:07;;;;;;;1.80;1.10;;;10.00;99.90;;;;;;5034783;28;20470;-69
2022/07/17 04:24:33;;;;;;;1.60;1.20;;;10.00;99.90;;;;;;5032444;28;20120;-69
2022/07/17 04:26:58;;;;;;;3.45;1.30;;;10.00;99.90;;;;;;5035258;28;20037;-69
2022/07/17 04:29:24;;;;;;;2.28;1.30;;;10.10;99.90;;;;;;5033066;28;20041;-69
2022/07/17 04:31:51;;;;;;;3.17;1.33;;;10.10;99.90;;;;;;5014343;28;20048;-69
2022/07/17 04:34:17;;;;;;;3.25;1.58;;;10.20;99.90;;;;;;5034489;28;20032;-69
2022/07/17 04:36:42;;;;;;;3.95;1.60;;;10.20;99.90;;;;;;5035094;28;20187;-69
2022/07/17 04:39:08;;;;;;;5.18;2.20;;;10.20;99.90;;;;;;5031170;28;20037;-69
2022/07/17 04:41:34;;;;;;;5.15;2.15;;;10.20;99.90;;;;;;5019129;28;20409;-69
2022/07/17 04:43:59;;;;;;;4.25;2.10;;;10.20;99.90;;;;;;5033255;28;20040;-69
2022/07/17 04:46:25;;;;;;;3.67;1.83;;;10.20;99.90;;;;;;5034112;28;20095;-69
2022/07/17 04:48:50;;;;;;;4.72;2.40;;;10.30;99.90;;;;;;5033615;28;20037;-69
2022/07/17 04:51:16;;;;;;;5.10;2.08;;;10.40;99.90;;;;;;5034486;28;20107;-69
2022/07/17 04:53:41;;;;;;;4.43;2.30;;;10.40;99.90;;;;;;5017065;28;20033;-69
2022/07/17 04:56:07;;;;;;;6.03;2.53;;;10.40;99.90;;;;;;5018649;28;20076;-69
2022/07/17 04:58:32;;;;;;;5.47;2.55;;;10.50;99.90;;;;;;5032552;28;20417;-69
2022/07/17 05:00:58;;;;;;;6.68;2.90;;;10.60;99.90;;;;;;5035540;28;20044;-69
2022/07/17 05:03:23;;;;;;;6.80;3.28;;;10.60;99.90;;;;;;5034455;28;20477;-69
2022/07/17 05:05:49;;;;;;;8.25;3.03;;;10.70;99.90;;;;;;5033771;28;20397;-69
2022/07/17 05:08:16;;;;;;;7.47;3.03;;;10.70;99.90;;;;;;5031895;28;20049;-69
2022/07/17 05:10:41;;;;;;;5.47;2.85;;;10.80;99.90;;;;;;5029206;28;20519;-69
2022/07/17 05:13:07;;;;;;;6.85;2.92;;;10.80;99.90;;;;;;5031033;28;20040;-69
2022/07/17 05:15:33;;;;;;;6.53;2.92;;;10.90;99.90;;;;;;5018209;28;20125;-69
2022/07/17 05:17:58;;;;;;;7.63;3.30;;;10.90;99.90;;;;;;5032311;28;20049;-69
2022/07/17 05:20:24;;;;;;;5.80;2.90;;;10.80;99.90;;;;;;5034156;28;20041;-69
2022/07/17 05:22:49;;;;;;;6.28;2.75;;;10.90;99.90;;;;;;5034547;28;20037;-69
2022/07/17 05:25:18;;;;;;;6.38;2.55;;;10.90;99.90;;;;;;5052339;28;20040;-69
2022/07/17 05:27:44;;;;;;;6.40;2.80;;;11.00;99.90;;;;;;5032402;28;20048;-69
2022/07/17 05:30:09;;;;;;;5.95;3.00;;;11.00;99.90;;;;;;5032474;28;20091;-68
2022/07/17 05:32:35;;;;;;;7.55;2.80;;;11.00;99.90;;;;;;5034028;28;20384;-69
2022/07/17 05:35:00;;;;;;;6.82;3.10;;;11.10;99.90;;;;;;5016025;28;20408;-69
2022/07/17 05:37:26;;;;;;;5.20;2.83;;;11.20;99.90;;;;;;5033695;28;20029;-69
2022/07/17 05:39:53;;;;;;;6.20;3.25;;;11.20;99.90;;;;;;5018199;28;20090;-69
2022/07/17 05:42:18;;;;;;;6.32;2.90;;;11.30;99.90;;;;;;5035099;28;20491;-69
2022/07/17 05:44:44;;;;;;;5.70;2.88;;;11.30;99.90;;;;;;5038006;28;20110;-69
2022/07/17 05:47:09;;;;;;;5.47;2.63;;;11.30;99.90;;;;;;5021085;28;20112;-69
2022/07/17 05:49:35;;;;;;;6.90;3.03;;;11.40;99.90;;;;;;5036669;28;20436;-69
2022/07/17 05:52:01;;;;;;;6.35;2.85;;;11.50;99.90;;;;;;5020509;28;20120;-69
2022/07/17 05:54:26;;;;;;;6.40;3.00;;;11.50;99.90;;;;;;5012956;28;20457;-69
2022/07/17 05:56:52;;;;;;;4.78;2.33;;;11.60;99.90;;;;;;5038221;28;20092;-69
2022/07/17 05:59:17;;;;;;;5.45;2.65;;;11.60;99.90;;;;;;5023438;28;20036;-69
2022/07/17 06:01:43;;;;;;;6.95;3.00;;;11.70;99.90;;;;;;5034978;28;20041;-69
2022/07/17 06:04:09;;;;;;;6.13;2.90;;;11.70;99.90;;;;;;5018732;28;20041;-69
2022/07/17 06:06:34;;;;;;;5.97;2.50;;;11.80;99.90;;;;;;5019773;28;20067;-69
2022/07/17 06:09:00;;;;;;;9.07;3.10;;;11.90;99.90;;;;;;5035685;28;20505;-69
2022/07/17 06:11:26;;;;;;;5.68;2.72;;;12.00;99.90;;;;;;5018475;28;20086;-69
2022/07/17 06:13:51;;;;;;;7.97;2.70;;;12.20;99.90;;;;;;5027002;28;20033;-69
2022/07/17 06:16:17;;;;;;;6.78;2.58;;;12.30;99.90;;;;;;5035257;28;20470;-69
2022/07/17 06:18:43;;;;;;;6.85;2.60;;;12.50;99.90;;;;;;5020539;28;20184;-69
2022/07/17 06:21:09;;;;;;;7.55;3.00;;;12.70;99.90;;;;;;5035826;28;20041;-69
2022/07/17 06:23:35;;;;;;;8.70;2.75;;;12.90;99.90;;;;;;5033771;28;20045;-69
2022/07/17 06:26:00;;;;;;;6.93;2.63;;;13.10;99.90;;;;;;5030862;28;20059;-69
2022/07/17 06:28:26;;;;;;;6.63;2.90;;;13.30;99.90;;;;;;5036575;28;20032;-69
2022/07/17 06:30:51;;;;;;;5.70;2.72;;;13.40;99.90;;;;;;5027516;28;20482;-69
2022/07/17 06:33:17;;;;;;;7.97;2.70;;;13.60;99.90;;;;;;5035787;28;20052;-69
2022/07/17 06:35:42;;;;;;;7.03;2.47;;;13.80;99.90;;;;;;5018825;28;20041;-69
2022/07/17 06:38:10;;;;;;;5.50;2.00;;;14.00;99.90;;;;;;5035197;28;20041;-69
2022/07/17 06:40:36;;;;;;;9.25;2.20;;;14.10;99.90;;;;;;5018664;28;20553;-69
2022/07/17 06:43:02;;;;;;;3.63;1.85;;;14.30;99.90;;;;;;5030750;28;20124;-69
2022/07/17 06:45:27;;;;;;;4.53;1.90;;;14.40;99.90;;;;;;5034763;28;20409;-69
2022/07/17 06:47:53;;;;;;;6.65;1.70;;;14.50;99.90;;;;;;5020579;28;20037;-69
2022/07/17 06:50:19;;;;;;;6.07;2.15;;;14.60;99.90;;;;;;5020111;28;20029;-69
2022/07/17 06:52:45;;;;;;;5.45;2.05;;;14.60;99.90;;;;;;5019125;28;20060;-69
2022/07/17 06:55:10;;;;;;;5.97;1.67;;;14.70;99.90;;;;;;5034506;28;20485;-69
2022/07/17 06:57:36;;;;;;;5.38;1.67;;;14.80;99.90;;;;;;5029716;28;20041;-69
2022/07/17 07:00:03;;;;;;;5.88;1.90;;;15.00;99.90;;;;;;5016755;28;20029;-69
2022/07/17 07:02:28;;;;;;;4.32;1.58;;;15.10;99.90;;;;;;5028394;28;20044;-69
2022/07/17 07:04:54;;;;;;;8.27;1.70;;;15.20;99.90;;;;;;5036075;28;20124;-69
2022/07/17 07:07:19;;;;;;;5.07;1.55;;;15.20;99.90;;;;;;5019261;28;20029;-69
2022/07/17 07:09:45;;;;;;;8.10;1.40;;;15.10;99.90;;;;;;5034344;28;20033;-69
2022/07/17 07:12:10;;;;;;;6.53;1.67;;;15.10;99.90;;;;;;5034519;28;20508;-69
2022/07/17 07:14:36;;;;;;;7.90;1.77;;;15.10;99.90;;;;;;5025989;28;20036;-70
2022/07/17 07:17:01;;;;;;;6.15;1.65;;;15.20;99.90;;;;;;5032696;28;20428;-69
2022/07/17 07:19:27;;;;;;;5.88;1.77;;;15.10;99.90;;;;;;5035982;28;20117;-69
2022/07/17 07:21:53;;;;;;;7.47;1.73;;;15.10;99.90;;;;;;5033761;28;20040;-69
2022/07/17 07:24:18;;;;;;;4.28;1.60;;;15.20;99.90;;;;;;5034688;28;20040;-69
2022/07/17 07:26:44;;;;;;;7.65;1.60;;;15.30;99.90;;;;;;5033849;28;20413;-69
2022/07/17 07:29:09;;;;;;;4.82;1.23;;;15.30;99.90;;;;;;5035666;28;20052;-69
2022/07/17 07:31:35;;;;;;;4.43;1.25;;;15.30;99.90;;;;;;5036635;28;20081;-69
2022/07/17 07:34:00;;;;;;;4.60;1.30;;;15.30;99.90;;;;;;5035240;28;20045;-69
2022/07/17 07:36:27;;;;;;;7.60;1.70;;;15.30;99.90;;;;;;5019629;28;20039;-69
2022/07/17 07:38:53;;;;;;;9.85;1.45;;;15.30;99.90;;;;;;5029610;28;20059;-69
2022/07/17 07:41:18;;;;;;;5.38;1.40;;;15.40;99.90;;;;;;5035355;28;20037;-69
2022/07/17 07:43:44;;;;;;;7.93;1.30;;;15.40;99.90;;;;;;5035451;28;20059;-69
2022/07/17 07:46:09;;;;;;;4.60;1.20;;;15.40;99.90;;;;;;5035591;28;20044;-69
2022/07/17 07:48:35;;;;;;;5.90;1.23;;;15.40;99.90;;;;;;5035906;28;20055;-69
2022/07/17 07:51:01;;;;;;;8.13;1.48;;;15.50;99.90;;;;;;5036424;28;20080;-69
2022/07/17 07:53:27;;;;;;;5.88;1.17;;;15.60;99.90;;;;;;5031851;28;20087;-69
2022/07/17 07:55:53;;;;;;;5.15;1.58;;;15.70;99.90;;;;;;5032970;28;20036;-69
2022/07/17 07:58:19;;;;;;;6.25;1.35;;;15.60;99.90;;;;;;5034914;28;20128;-69
2022/07/17 08:00:45;;;;;;;5.80;1.40;;;15.70;99.90;;;;;;5019007;28;20048;-69
2022/07/17 08:03:11;;;;;;;5.95;1.42;;;15.80;99.90;;;;;;5033340;28;20048;-69
2022/07/17 08:05:36;;;;;;;7.63;1.50;;;15.70;99.90;;;;;;5034781;28;20049;-69
2022/07/17 08:08:02;;;;;;;4.95;1.40;;;15.90;99.90;;;;;;5047661;28;20042;-69
2022/07/17 08:10:28;;;;;;;6.53;1.58;;;15.90;99.90;;;;;;5010004;28;20039;-69
2022/07/17 08:12:54;;;;;;;6.63;1.60;;;16.00;99.90;;;;;;5028810;28;20036;-69
2022/07/17 08:15:21;;;;;;;7.50;1.75;;;16.10;99.90;;;;;;5031875;28;20071;-69
2022/07/17 08:17:49;;;;;;;4.25;1.30;;;16.10;99.90;;;;;;5036104;28;20405;-69
2022/07/17 08:20:15;;;;;;;7.90;1.73;;;16.20;99.90;;;;;;5031018;28;20048;-69
2022/07/17 08:22:42;;;;;;;5.53;1.23;;;16.20;99.90;;;;;;5031219;28;20037;-70
2022/07/17 08:25:08;;;;;;;5.05;1.10;;;16.30;99.90;;;;;;5034091;28;20083;-70
2022/07/17 08:27:39;;;;;;;5.03;1.17;;;16.30;99.90;;;;;;5033845;28;20502;-69
2022/07/17 08:30:06;;;;;;;6.18;1.33;;;16.40;99.90;;;;;;5026047;28;20044;-69
2022/07/17 08:32:32;;;;;;;6.53;1.30;;;16.60;99.90;;;;;;5031398;28;20053;-69
2022/07/17 08:34:57;;;;;;;7.80;1.60;;;16.70;99.90;;;;;;5046358;28;20071;-69
2022/07/17 08:37:24;;;;;;;6.47;1.60;;;16.90;99.90;;;;;;5035938;28;20040;-69
2022/07/17 08:39:50;;;;;;;5.47;1.33;;;17.20;99.90;;;;;;5033723;28;20071;-70
2022/07/17 08:42:16;;;;;;;6.18;1.45;;;17.20;99.90;;;;;;5032403;28;20032;-69
2022/07/17 08:44:45;;;;;;;8.30;1.70;;;17.30;99.90;;;;;;5026975;28;20493;-69
2022/07/17 08:47:12;;;;;;;4.93;1.10;;;17.50;99.90;;;;;;5024047;28;20041;-69
2022/07/17 08:49:44;;;;;;;5.65;1.45;;;17.60;99.90;;;;;;5033070;28;20052;-69
2022/07/17 08:52:11;;;;;;;;;;;17.70;99.90;;;;;;5032042;28;20041;-69
2022/07/17 08:54:37;;;;;;;5.55;1.20;;;17.80;99.90;;;;;;5016957;28;19924;-70
2022/07/17 08:57:03;;;;;;;7.22;1.98;;;17.90;99.90;;;;;;5018414;28;20051;-69
2022/07/17 08:59:29;;;;;;;4.40;1.30;;;17.90;99.90;;;;;;5034362;28;20123;-70
2022/07/17 09:01:55;;;;;;;7.45;1.15;;;18.00;99.90;;;;;;5031248;28;20092;-69
2022/07/17 09:04:21;;;;;;;5.80;1.83;;;18.10;99.90;;;;;;5028646;28;20488;-69
2022/07/17 09:06:56;;;;;;;5.00;1.35;;;18.10;99.90;;;;;;5017234;28;20048;-70
2022/07/17 09:09:22;;;;;;;5.82;1.40;;;18.30;99.90;;;;;;5033359;28;20087;-69
2022/07/17 09:11:50;;;;;;;5.35;1.27;;;18.30;99.90;;;;;;5034307;28;20041;-70
2022/07/17 09:14:18;;;;;;;8.50;1.63;;;18.40;99.90;;;;;;5034569;28;20488;-69
2022/07/17 09:17:00;;;;;;;5.55;1.30;;;18.50;99.90;;;;;;5017790;28;20072;-69
2022/07/17 09:19:30;;;;;;;10.45;1.75;;;18.50;99.90;;;;;;5032257;28;20120;-70
2022/07/17 09:22:13;;;;;;;4.43;1.25;;;18.60;99.90;;;;;;5032917;28;20040;-69
2022/07/17 09:24:51;;;;;;;6.53;1.80;;;18.70;99.90;;;;;;5034911;28;20033;-69
2022/07/17 09:27:36;;;;;;;7.45;1.50;;;18.70;99.90;;;;;;5025000;28;20405;-69
2022/07/17 09:30:05;;;;;;;4.68;2.65;;;18.80;99.90;;;;;;5031587;28;20401;-70
2022/07/17 09:32:36;;;;;;;4.95;1.63;;;19.00;99.90;;;;;;5017383;28;20108;-70
2022/07/17 09:35:05;;;;;;;6.15;1.20;;;19.10;99.90;;;;;;5033765;28;20064;-70
2022/07/17 09:37:31;;;;;;;6.43;1.40;;;19.10;99.90;;;;;;5030410;28;20036;-70
2022/07/17 09:39:58;;;;;;;6.18;1.33;;;19.20;99.90;;;;;;5031546;28;20040;-69
2022/07/17 09:42:28;;;;;;;6.13;1.40;;;19.30;99.90;;;;;;5017111;28;20056;-69
2022/07/17 09:45:05;;;;;;;6.70;1.30;;;19.30;99.90;;;;;;5016509;28;20087;-70
2022/07/17 09:47:34;;;;;;;4.43;1.58;;;19.40;99.90;;;;;;5018398;28;20169;-69
2022/07/17 09:50:02;;;;;;;7.03;1.65;;;19.40;99.90;;;;;;5017240;28;20091;-70
2022/07/17 09:52:32;;;;;;;6.45;1.30;;;19.50;99.90;;;;;;5031613;28;20067;-70
2022/07/17 09:55:00;;;;;;;4.93;1.33;;;19.50;99.90;;;;;;5032253;28;20068;-70
2022/07/17 09:57:34;;;;;;;4.22;1.40;;;19.60;99.90;;;;;;5027965;28;20444;-70
2022/07/17 10:00:06;;;;;;;5.00;1.20;;;19.80;99.90;;;;;;5006997;28;20033;-69
2022/07/17 10:02:33;;;;;;;4.85;1.42;;;19.70;99.90;;;;;;5014856;28;20029;-70
2022/07/17 10:04:59;;;;;;;5.22;1.45;;;19.80;99.90;;;;;;5013731;28;20033;-70
2022/07/17 10:07:25;;;;;;;5.63;1.75;;;19.90;99.90;;;;;;5019020;28;20053;-69
2022/07/17 10:09:51;;;;;;;3.05;1.17;;;19.90;99.90;;;;;;5014956;28;20050;-69
2022/07/17 10:12:19;;;;;;;5.03;1.52;;;20.00;99.90;;;;;;5014541;28;20371;-70
2022/07/17 10:14:47;;;;;;;3.95;1.30;;;20.00;99.90;;;;;;5020335;28;20079;-69
2022/07/17 10:17:14;;;;;;;3.80;1.55;;;20.00;99.90;;;;;;5027287;28;20025;-70
2022/07/17 10:19:53;;;;;;;5.25;1.35;;;20.00;99.90;;;;;;4998162;28;20045;-69
2022/07/17 10:22:19;;;;;;;5.38;1.60;;;20.10;99.90;;;;;;5029726;28;20494;-69
2022/07/17 10:24:54;;;;;;;3.92;1.42;;;20.20;99.90;;;;;;5050437;28;20087;-70
2022/07/17 10:27:28;;;;;;;3.08;1.48;;;20.30;99.90;;;;;;5034258;28;20025;-70
2022/07/17 10:30:00;;;;;;;2.72;1.27;;;20.30;99.90;;;;;;5021787;28;20047;-69
2022/07/17 10:32:26;;;;;;;8.23;1.58;;;20.50;99.90;;;;;;5019506;28;20049;-70
2022/07/17 10:35:02;;;;;;;5.30;1.60;;;20.50;99.90;;;;;;5038139;28;20045;-69
2022/07/17 10:37:36;;;;;;;3.53;1.30;;;20.60;99.90;;;;;;5037777;28;20450;-69
2022/07/17 10:40:04;;;;;;;5.28;1.58;;;20.60;99.90;;;;;;5021151;28;20076;-69
2022/07/17 10:42:43;;;;;;;5.88;1.42;;;20.60;99.90;;;;;;5021224;28;20037;-69
2022/07/17 10:45:10;;;;;;;6.55;1.65;;;20.70;99.90;;;;;;5048159;28;20042;-69
2022/07/17 10:47:52;;;;;;;4.85;1.25;;;20.80;99.90;;;;;;5014816;28;20072;-70
2022/07/17 10:50:21;;;;;;;4.30;1.30;;;20.80;99.90;;;;;;5035033;28;20041;-70
2022/07/17 10:53:22;;;;;;;4.50;1.40;;;20.80;99.90;;;;;;5037064;28;20075;-70
2022/07/17 10:55:52;;;;;;;4.93;1.38;;;20.90;99.90;;;;;;5022993;28;20056;-69
2022/07/17 10:58:24;;;;;;;3.90;1.48;;;21.00;99.90;;;;;;5020190;28;20449;-69
2022/07/17 11:01:19;;;;;;;4.50;1.42;;;21.00;99.90;;;;;;5030951;28;20087;-70
2022/07/17 11:03:48;;;;;;;4.13;1.40;;;21.20;99.90;;;;;;5036026;28;20045;-70
2022/07/17 11:06:20;;;;;;;6.28;1.77;;;21.30;99.90;;;;;;5032351;28;20068;-70
2022/07/17 11:08:50;;;;;;;4.03;1.33;;;21.40;99.90;;;;;;5030113;28;20444;-70
2022/07/17 11:11:18;;;;;;;4.68;1.25;;;21.60;99.90;;;;;;5036338;28;20068;-70
2022/07/17 11:13:44;;;;;;;5.68;1.42;;;21.50;99.90;;;;;;5031670;28;20116;-70
2022/07/17 11:16:09;;;;;;;7.65;1.60;;;21.50;99.90;;;;;;5032508;28;20155;-70
2022/07/17 11:18:36;;;;;;;4.70;1.77;;;21.60;99.90;;;;;;5015006;28;20040;-70
2022/07/17 11:21:03;;;;;;;5.82;1.60;;;21.60;99.90;;;;;;5036173;28;20396;-70
2022/07/17 11:23:33;;;;;;;5.28;1.60;;;21.70;99.20;;;;;;5018664;28;20220;-70
2022/07/17 11:26:06;;;;;;;3.38;1.25;;;21.80;99.90;;;;;;5036044;28;20135;-70
2022/07/17 11:28:39;;;;;;;3.63;1.50;;;21.80;99.90;;;;;;5036678;28;20076;-70
2022/07/17 11:31:17;;;;;;;6.82;1.80;;;21.70;99.90;;;;;;5015224;28;20056;-70
2022/07/17 11:33:53;;;;;;;5.50;1.80;;;21.80;99.90;;;;;;5018129;28;20041;-70
2022/07/17 11:36:21;;;;;;;3.10;1.48;;;21.60;99.90;;;;;;5036935;28;20115;-70
2022/07/17 11:38:47;;;;;;;5.10;1.73;;;21.70;99.90;;;;;;5027120;28;20052;-70
2022/07/17 11:41:12;;;;;;;4.78;1.70;;;21.60;99.20;;;;;;5036255;28;20060;-71
2022/07/17 11:43:41;;;;;;;5.40;1.63;;;21.80;99.90;;;;;;5034935;28;20469;-70
2022/07/17 11:46:08;;;;;;;6.05;1.70;;;21.90;99.90;;;;;;5036245;28;20048;-70
2022/07/17 11:48:34;;;;;;;5.97;1.52;;;21.90;99.00;;;;;;5036181;28;20555;-71
2022/07/17 11:50:59;;;;;;;6.25;1.50;;;21.90;99.90;;;;;;5023965;28;20037;-70
2022/07/17 11:53:36;;;;;;;3.75;1.60;;;22.00;99.90;;;;;;5035736;28;20041;-70
2022/07/17 11:56:03;;;;;;;4.13;1.38;;;22.00;99.90;;;;;;5019375;28;20037;-70
2022/07/17 11:58:39;;;;;;;5.00;2.20;;;22.00;99.90;;;;;;5019307;28;20082;-70
2022/07/17 12:01:05;;;;;;;3.50;1.55;;;22.00;99.90;;;;;;5000451;28;20088;-70
2022/07/17 12:03:31;;;;;;;3.67;1.45;;;22.00;99.90;;;;;;5032265;28;20076;-70
2022/07/17 12:05:57;;;;;;;5.85;1.88;;;21.80;99.90;;;;;;5019577;28;20040;-70
2022/07/17 12:08:22;;;;;;;4.78;1.65;;;21.90;99.90;;;;;;5019750;28;20045;-70
2022/07/17 12:10:58;;;;;;;5.18;1.50;;;22.00;99.90;;;;;;5035915;28;20033;-70
2022/07/17 12:13:36;;;;;;;5.30;1.60;;;21.90;99.90;;;;;;5035645;28;20072;-70
2022/07/17 12:16:02;;;;;;;5.60;1.90;;;21.90;99.90;;;;;;5019941;28;20045;-70
2022/07/17 12:18:29;;;;;;;4.20;1.83;;;21.90;99.90;;;;;;5035653;28;20048;-70
2022/07/17 12:20:57;;;;;;;5.13;1.60;;;21.90;99.90;;;;;;5035764;28;20143;-70
2022/07/17 12:23:30;;;;;;;6.53;1.90;;;22.00;99.90;;;;;;5018138;28;20044;-70
2022/07/17 12:26:10;;;;;;;4.47;1.60;;;21.90;99.90;;;;;;5008246;28;20037;-70
2022/07/17 12:28:37;;;;;;;6.20;1.90;;;21.90;99.90;;;;;;5019250;28;20458;-70
2022/07/17 12:31:03;;;;;;;5.53;1.90;;;22.00;99.70;;;;;;5035214;28;20084;-70
2022/07/17 12:33:28;;;;;;;5.72;2.13;;;21.90;98.90;;;;;;5016820;28;20479;-70
2022/07/17 12:35:54;;;;;;;4.38;1.83;;;22.00;98.80;;;;;;4999128;28;20026;-70
2022/07/17 12:38:20;;;;;;;7.45;2.08;;;22.00;99.70;;;;;;5015588;28;20087;-70
2022/07/17 12:40:45;;;;;;;6.43;2.08;;;22.00;99.00;;;;;;5016026;28;20080;-70
2022/07/17 12:43:11;;;;;;;5.20;1.77;;;22.10;99.90;;;;;;5011835;28;20045;-70
2022/07/17 12:45:37;;;;;;;5.57;2.08;;;22.10;99.40;;;;;;5015902;28;20096;-70
2022/07/17 12:48:03;;;;;;;4.97;2.10;;;22.10;99.50;;;;;;4999382;28;20050;-70